Yueyang, China
Current Conditions -  °F | °C
As of 12:00 AM on Monday 22 Dec 2014 (Local Time) from ZGHA Reporting Station
Clear Clear  
Wind Chill: 24°   Ceiling: Unl
Heat Index: 30°   Visibility: 4mi
Dew Point: 25°   Wind: 7mph
Humidity: 80%   Direction: 70°ENE
Pressure: 30.48"   Gusts: NA
Location:  29.38°N, 113.1°E
Report Text: ZGHA 211600Z 07003MPS 020V080 6000 NSC M01/M04 Q1032 NOSIG
Loading
Personal Weather Stations






























Interactive Weather Map New forecast layout! Learn more

10-Day Weather Forecast

Advertisements
Track Severe Weather on mobile